createdAt,value
2019-05-07T00:00:00.431Z,68.9
2019-05-07T00:05:02.839Z,69
2019-05-07T00:10:00.453Z,68.5
2019-05-07T00:15:04.714Z,69
2019-05-07T00:20:02.536Z,69.3
2019-05-07T00:25:02.570Z,68.6
2019-05-07T00:30:03.118Z,69.1
2019-05-07T00:35:02.661Z,68.7
2019-05-07T00:40:02.891Z,69.3
2019-05-07T00:45:20.417Z,68.3
2019-05-07T00:50:03.086Z,69.4
2019-05-07T00:55:03.114Z,68.4
2019-05-07T01:00:02.518Z,69.4
2019-05-07T01:05:03.236Z,69.5
2019-05-07T01:10:02.465Z,69.2
2019-05-07T01:15:03.215Z,69.4
2019-05-07T01:20:03.159Z,69.1
2019-05-07T01:25:02.577Z,70.2
2019-05-07T01:30:02.906Z,69.6
2019-05-07T01:35:02.736Z,69.2
2019-05-07T01:40:03.288Z,70.8
2019-05-07T01:45:02.733Z,70.2
2019-05-07T01:50:03.292Z,70.1
2019-05-07T01:55:03.501Z,70
2019-05-07T02:00:02.922Z,70
2019-05-07T02:05:00.518Z,69.7
2019-05-07T02:10:03.084Z,69.6
2019-05-07T02:15:02.938Z,69.3
2019-05-07T02:20:02.875Z,70.9
2019-05-07T02:25:00.518Z,70.2
2019-05-07T02:30:04.653Z,69.4
2019-05-07T02:35:04.477Z,69.5
2019-05-07T02:40:04.158Z,70.6
2019-05-07T02:45:04.588Z,70.8
2019-05-07T02:50:03.480Z,70.5
2019-05-07T02:55:04.361Z,70.7
2019-05-07T03:00:04.962Z,70.9
2019-05-07T03:05:00.561Z,71.1
2019-05-07T03:10:04.019Z,72.4
2019-05-07T03:15:04.889Z,72.1
2019-05-07T03:20:03.352Z,72.2
2019-05-07T03:25:03.738Z,72.3
2019-05-07T03:30:04.749Z,72.7
2019-05-07T03:35:07.647Z,72.9
2019-05-07T03:40:04.365Z,73.6
2019-05-07T03:45:03.943Z,74.1
2019-05-07T03:50:03.735Z,73.3
2019-05-07T03:55:04.041Z,73.5
2019-05-07T04:00:04.508Z,73.7
2019-05-07T04:05:04.591Z,73.9
2019-05-07T04:10:04.313Z,73
2019-05-07T04:15:03.903Z,73.3
2019-05-07T04:20:04.806Z,72.4
2019-05-07T04:25:04.664Z,73.2
2019-05-07T04:30:04.009Z,73.2
2019-05-07T04:35:04.329Z,72.2
2019-05-07T04:40:03.531Z,71.8
2019-05-07T04:45:04.543Z,72.1
2019-05-07T04:50:04.105Z,71.2
2019-05-07T04:55:04.539Z,71.5
2019-05-07T05:00:03.929Z,71.8
2019-05-07T05:05:03.715Z,70.4
2019-05-07T05:10:03.140Z,70.3
2019-05-07T05:15:02.416Z,67.3
2019-05-07T05:20:03.865Z,68.2
2019-05-07T05:25:03.044Z,66.8
2019-05-07T05:30:03.327Z,67.6
2019-05-07T05:35:00.660Z,67.3
2019-05-07T05:40:09.055Z,65.1
2019-05-07T05:45:02.479Z,64.2
2019-05-07T05:50:02.221Z,64
2019-05-07T05:55:02.766Z,63.9
2019-05-07T06:00:02.719Z,60.6
2019-05-07T06:05:02.376Z,61.8
2019-05-07T06:10:02.759Z,61.8
2019-05-07T06:15:01.986Z,59.1
2019-05-07T06:20:03.152Z,60.1
2019-05-07T06:25:02.681Z,59.5
2019-05-07T06:30:05.185Z,58.6
2019-05-07T06:35:03.290Z,58.2
2019-05-07T06:40:02.866Z,56.8
2019-05-07T06:45:03.222Z,59.1
2019-05-07T06:50:03.353Z,57.3
2019-05-07T06:55:03.489Z,57.3
2019-05-07T07:00:03.058Z,58.6
2019-05-07T07:05:03.266Z,57.4
2019-05-07T07:10:02.977Z,56.6
2019-05-07T07:15:03.003Z,57.2
2019-05-07T07:20:02.464Z,56.8
2019-05-07T07:25:06.386Z,56.4
2019-05-07T07:30:02.613Z,55.9
2019-05-07T07:35:02.627Z,56.6
2019-05-07T07:40:02.250Z,55.9
2019-05-07T07:45:03.148Z,55.9
2019-05-07T07:50:02.538Z,56.1
2019-05-07T07:55:02.359Z,54.9
2019-05-07T08:00:02.802Z,55.9
2019-05-07T08:05:02.322Z,55.9
2019-05-07T08:10:02.874Z,54.8
2019-05-07T08:15:21.063Z,51.1
2019-05-07T08:20:02.840Z,51.3
2019-05-07T08:25:02.148Z,51.7
2019-05-07T08:30:03.106Z,50.7
2019-05-07T08:35:02.634Z,50.5
2019-05-07T08:40:03.284Z,49.9
2019-05-07T08:45:03.130Z,51.4
2019-05-07T08:50:03.105Z,50.6
2019-05-07T08:55:02.480Z,49.1
2019-05-07T09:00:04.834Z,49.1
2019-05-07T09:05:03.178Z,45.9
2019-05-07T09:10:02.745Z,46
2019-05-07T09:15:02.490Z,47.5
2019-05-07T09:20:02.828Z,46.3
2019-05-07T09:25:03.313Z,47.4
2019-05-07T09:30:03.023Z,43.9
2019-05-07T09:35:02.641Z,45.7
2019-05-07T09:40:03.192Z,45.8
2019-05-07T09:45:02.192Z,45.7
2019-05-07T09:50:08.563Z,46.1
2019-05-07T09:55:16.752Z,42.8
2019-05-07T10:00:02.589Z,41.1
2019-05-07T10:05:02.737Z,43.3
2019-05-07T10:10:03.419Z,43.8
2019-05-07T10:15:03.288Z,44.4
2019-05-07T10:20:18.080Z,46.6
2019-05-07T10:25:03.174Z,46.6
2019-05-07T10:30:02.798Z,45.2
2019-05-07T10:35:02.589Z,45.5
2019-05-07T10:40:03.259Z,47.2
2019-05-07T10:45:03.318Z,46.8
2019-05-07T10:50:03.037Z,47.2
2019-05-07T10:55:03.070Z,47.1
2019-05-07T11:00:03.448Z,47.1
2019-05-07T11:05:02.583Z,45.3
2019-05-07T11:10:02.188Z,48.5
2019-05-07T11:15:02.505Z,48
2019-05-07T11:20:00.828Z,46.9
2019-05-07T11:25:03.344Z,47.8
2019-05-07T11:30:02.904Z,46.4
2019-05-07T11:35:03.251Z,43.6
2019-05-07T11:40:03.301Z,42.1
2019-05-07T11:45:02.379Z,42.2
2019-05-07T11:50:03.376Z,40.9
2019-05-07T11:55:03.260Z,44.7
2019-05-07T12:00:03.022Z,41
2019-05-07T12:05:02.477Z,40
2019-05-07T12:10:05.105Z,39.7
2019-05-07T12:15:02.682Z,38.4
2019-05-07T12:20:02.735Z,38.7
2019-05-07T12:25:02.924Z,41.2
2019-05-07T12:30:00.851Z,40.7
2019-05-07T12:35:02.630Z,41
2019-05-07T12:40:02.156Z,42
2019-05-07T12:45:02.711Z,39.7
2019-05-07T12:50:00.843Z,38.5
2019-05-07T12:55:03.482Z,38.4
2019-05-07T13:00:02.397Z,37.2
2019-05-07T13:05:03.248Z,37
2019-05-07T13:10:02.865Z,39.3
2019-05-07T13:15:03.167Z,37.1
2019-05-07T13:20:02.113Z,36.3
2019-05-07T13:25:02.348Z,35.5
2019-05-07T13:30:02.911Z,38.1
2019-05-07T13:35:03.053Z,35.5
2019-05-07T13:40:02.974Z,35.5
2019-05-07T13:45:03.120Z,35.7
2019-05-07T13:50:02.869Z,37.5
2019-05-07T13:55:00.869Z,36.5
2019-05-07T14:00:05.164Z,35.2
2019-05-07T14:05:01.045Z,38.1
2019-05-07T14:10:02.465Z,34.6
2019-05-07T14:15:02.498Z,36
2019-05-07T14:20:05.063Z,35.5
2019-05-07T14:25:00.872Z,32.8
2019-05-07T14:30:02.995Z,34.9
2019-05-07T14:35:02.440Z,36.5
2019-05-07T14:40:03.086Z,35.7
2019-05-07T14:45:00.903Z,34.7
2019-05-07T14:50:02.361Z,33.7
2019-05-07T14:55:04.887Z,35.2
2019-05-07T15:00:03.433Z,34.8
2019-05-07T15:05:03.048Z,36.9
2019-05-07T15:10:02.660Z,35
2019-05-07T15:15:02.507Z,34.4
2019-05-07T15:20:03.157Z,36.9
2019-05-07T15:25:03.124Z,37.3
2019-05-07T15:30:02.666Z,34.6
2019-05-07T15:35:02.523Z,36.2
2019-05-07T15:40:02.774Z,37.7
2019-05-07T15:45:02.551Z,36.6
2019-05-07T15:50:00.958Z,39.4
2019-05-07T15:55:03.091Z,37.1
2019-05-07T16:00:02.364Z,37.2
2019-05-07T16:05:04.928Z,39
2019-05-07T16:10:00.942Z,39.4
2019-05-07T16:15:03.342Z,37.6
2019-05-07T16:20:03.461Z,37.3
2019-05-07T16:25:07.372Z,36.4
2019-05-07T16:30:01.088Z,38.9
2019-05-07T16:35:05.843Z,39.6
2019-05-07T16:40:04.497Z,39.5
2019-05-07T16:45:03.337Z,39.3
2019-05-07T16:50:04.309Z,38
2019-05-07T16:55:03.302Z,38.5
2019-05-07T17:00:03.204Z,39.7
2019-05-07T17:05:03.338Z,41.6
2019-05-07T17:10:02.861Z,43.2
2019-05-07T17:15:03.324Z,44.2
2019-05-07T17:20:03.168Z,44.2
2019-05-07T17:25:03.311Z,45.2
2019-05-07T17:30:03.113Z,46.3
2019-05-07T17:35:02.829Z,46.1
2019-05-07T17:40:03.291Z,42.5
2019-05-07T17:45:03.273Z,41.6
2019-05-07T17:50:02.431Z,44.2
2019-05-07T17:55:02.476Z,45.6
2019-05-07T18:02:02.398Z,46.3
2019-05-07T18:05:03.150Z,46.8
2019-05-07T18:10:02.696Z,47.3
2019-05-07T18:15:02.631Z,47.8
2019-05-07T18:20:02.863Z,49.2
2019-05-07T18:25:02.124Z,49.8
2019-05-07T18:30:03.126Z,50.1
2019-05-07T18:35:02.680Z,51.9
2019-05-07T18:40:02.892Z,52.5
2019-05-07T18:45:02.427Z,52.8
2019-05-07T18:50:03.352Z,52.9
2019-05-07T18:55:03.096Z,54
2019-05-07T19:00:05.461Z,52.9
2019-05-07T19:05:03.168Z,56.6
2019-05-07T19:10:02.991Z,58.7
2019-05-07T19:15:03.284Z,59.3
2019-05-07T19:20:03.574Z,60.7
2019-05-07T19:25:04.930Z,60.6
2019-05-07T19:30:01.704Z,62.7
2019-05-07T19:35:01.415Z,62.4
2019-05-07T19:40:02.390Z,64.7
2019-05-07T19:45:03.024Z,65.1
2019-05-07T19:50:03.043Z,65.4
2019-05-07T19:55:05.021Z,66.2
2019-05-07T20:00:01.262Z,66.1
2019-05-07T20:05:03.727Z,66.3
2019-05-07T20:10:05.963Z,66.1
2019-05-07T20:15:03.017Z,67.7
2019-05-07T20:20:03.441Z,70
2019-05-07T20:25:19.069Z,69.2
2019-05-07T20:30:03.598Z,70
2019-05-07T20:35:03.067Z,70.4
2019-05-07T20:40:03.357Z,71.5
2019-05-07T20:45:03.327Z,70.3
2019-05-07T20:50:01.289Z,70.9
2019-05-07T20:55:01.189Z,70.4
2019-05-07T21:00:03.133Z,72
2019-05-07T21:05:03.284Z,73
2019-05-07T21:10:02.341Z,72.5
2019-05-07T21:15:03.721Z,72.8
2019-05-07T21:20:01.103Z,73.6
2019-05-07T21:25:02.968Z,73.5
2019-05-07T21:30:02.803Z,73.1
2019-05-07T21:35:01.096Z,73.1
2019-05-07T21:40:02.788Z,74.6
2019-05-07T21:45:02.459Z,74.4
2019-05-07T21:50:03.259Z,74.5
2019-05-07T21:55:02.662Z,75.6
2019-05-07T22:00:02.498Z,77
2019-05-07T22:05:02.944Z,76.7
2019-05-07T22:10:02.463Z,77.1
2019-05-07T22:15:04.659Z,77.3
2019-05-07T22:20:03.340Z,77
2019-05-07T22:25:05.446Z,76.5
2019-05-07T22:30:02.599Z,77.8
2019-05-07T22:35:03.022Z,77.3
2019-05-07T22:40:03.078Z,76.9
2019-05-07T22:45:03.106Z,77.2
2019-05-07T22:50:03.132Z,77.4
2019-05-07T22:55:01.160Z,78.7
2019-05-07T23:00:04.811Z,77.7
2019-05-07T23:05:03.131Z,77.4
2019-05-07T23:10:03.189Z,78
2019-05-07T23:15:02.989Z,77.4
2019-05-07T23:20:01.150Z,77.4
2019-05-07T23:25:01.149Z,78.1
2019-05-07T23:30:02.911Z,77.4
2019-05-07T23:35:02.392Z,77.9
2019-05-07T23:40:04.136Z,77.7
2019-05-07T23:45:02.278Z,79.6
2019-05-07T23:50:02.315Z,78.3
2019-05-07T23:55:03.167Z,77.5
